Time;durP1;ratioP1;P1;durP2;ratioP2;P2;SDS_P1;SDS_P2;PMS_P1;PMS_P2;Temp;Humidity;BMP_temperature;BMP_pressure;BME280_temperature;BME280_humidity;BME280_pressure;Samples;Min_cycle;Max_cycle;Signal;HPM_P1;HPM_P2
2022/07/25 00:02:58;;;;;;;;;;;;;;;19.01;50.19;96249.44;6221694;28;19926;-66
2022/07/25 00:06:04;;;;;;;;;;;;;;;19.00;50.79;96250.44;6221311;28;20346;-66
2022/07/25 00:09:07;;;;;;;;;;;;;;;18.93;51.82;96249.44;6221184;28;19931;-65
2022/07/25 00:12:13;;;;;;;;;;;;;;;18.91;51.00;96247.94;6221373;28;20012;-65
2022/07/25 00:15:15;;;;;;;;;;;;;;;18.91;51.84;96255.94;6221241;28;19925;-65
2022/07/25 00:18:18;;;;;;;;;;;;;;;18.94;51.69;96258.25;6221412;28;19926;-66
2022/07/25 00:21:21;;;;;;;;;;;;;;;18.98;51.48;96262.28;6221511;28;20423;-65
2022/07/25 00:24:25;;;;;;;;;;;;;;;18.96;52.11;96261.59;6220922;28;19972;-65
2022/07/25 00:27:28;;;;;;;;;;;;;;;18.95;52.05;96262.63;6221217;28;19948;-65
2022/07/25 00:30:29;;;;;;;;;;;;;;;18.99;51.92;96263.94;6221047;28;19925;-66
2022/07/25 00:33:33;;;;;;;;;;;;;;;19.03;51.05;96270.63;6220528;28;20091;-66
2022/07/25 00:36:36;;;;;;;;;;;;;;;19.07;51.15;96271.94;6220708;28;19929;-66
2022/07/25 00:39:39;;;;;;;;;;;;;;;19.07;51.44;96261.28;6221314;28;19926;-66
2022/07/25 00:42:40;;;;;;;;;;;;;;;19.07;51.51;96269.28;6221091;28;19933;-65
2022/07/25 00:45:41;;;;;;;;;;;;;;;19.05;51.89;96268.59;6221096;28;19932;-65
2022/07/25 00:48:43;;;;;;;;;;;;;;;19.07;51.77;96266.59;6220856;28;19948;-66
2022/07/25 00:51:47;;;;;;;;;;;;;;;19.11;51.34;96273.28;6220829;28;20407;-65
2022/07/25 00:54:48;;;;;;;;;;;;;;;19.18;51.70;96274.25;6218741;28;19921;-65
2022/07/25 00:57:53;;;;;;;;;;;;;;;19.26;51.08;96282.25;6224119;28;19926;-65
2022/07/25 01:00:54;;;;;;;;;;;;;;;19.29;51.53;96271.25;6225197;28;19928;-66
2022/07/25 01:03:56;;;;;;;;;;;;;;;19.36;50.82;96273.25;6224552;28;19925;-66
2022/07/25 01:07:01;;;;;;;;;;;;;;;19.38;51.39;96282.75;6224828;28;19931;-66
2022/07/25 01:10:06;;;;;;;;;;;;;;;19.36;51.25;96282.06;6225183;28;19932;-65
2022/07/25 01:13:10;;;;;;;;;;;;;;;19.40;50.95;96285.25;6225051;28;19931;-65
2022/07/25 01:16:14;;;;;;;;;;;;;;;19.45;51.84;96290.94;6225049;28;19925;-65
2022/07/25 01:19:17;;;;;;;;;;;;;;;19.48;50.73;96288.75;6225127;28;20509;-66
2022/07/25 01:22:21;;;;;;;;;;;;;;;19.52;51.06;96281.22;6224846;28;19925;-65
2022/07/25 01:25:25;;;;;;;;;;;;;;;19.54;50.96;96284.56;6224708;28;20022;-66
2022/07/25 01:28:28;;;;;;;;;;;;;;;19.61;51.19;96276.72;6224875;28;19925;-65
2022/07/25 01:31:31;;;;;;;;;;;;;;;19.68;50.59;96278.56;6224569;28;20311;-65
2022/07/25 01:34:32;;;;;;;;;;;;;;;19.71;51.11;96275.56;6224522;28;19925;-65
2022/07/25 01:37:37;;;;;;;;;;;;;;;19.80;50.27;96283.53;6224593;28;19926;-65
2022/07/25 01:40:40;;;;;;;;;;;;;;;19.88;51.07;96286.19;6224718;28;19937;-65
2022/07/25 01:43:44;;;;;;;;;;;;;;;19.92;50.47;96271.47;6224666;28;19926;-66
2022/07/25 01:46:47;;;;;;;;;;;;;;;19.99;51.02;96267.13;6224178;28;20024;-65
2022/07/25 01:49:51;;;;;;;;;;;;;;;20.04;50.85;96275.47;6224380;28;20315;-65
2022/07/25 01:52:55;;;;;;;;;;;;;;;20.12;50.48;96274.56;6223944;28;20395;-66
2022/07/25 01:55:56;;;;;;;;;;;;;;;20.18;50.25;96269.38;6223780;28;19929;-65
2022/07/25 01:58:57;;;;;;;;;;;;;;;20.25;50.46;96266.84;6223883;28;19925;-64
2022/07/25 02:01:58;;;;;;;;;;;;;;;20.32;50.35;96266.97;6223782;28;19921;-66
2022/07/25 02:05:02;;;;;;;;;;;;;;;20.38;50.24;96264.44;6223627;28;19932;-66
2022/07/25 02:08:09;;;;;;;;;;;;;;;20.44;50.37;96268.25;6222735;28;20307;-66
2022/07/25 02:11:10;;;;;;;;;;;;;;;20.47;50.64;96265.22;6223620;28;19948;-66
2022/07/25 02:14:14;;;;;;;;;;;;;;;20.56;49.93;96258.84;6223095;28;19929;-64
2022/07/25 02:17:18;;;;;;;;;;;;;;;20.65;49.75;96270.31;6223097;28;20379;-66
2022/07/25 02:20:19;;;;;;;;;;;;;;;20.71;50.27;96263.44;6222601;28;19925;-65
2022/07/25 02:23:22;;;;;;;;;;;;;;;20.77;49.60;96260.03;6223625;28;20415;-66
2022/07/25 02:26:25;;;;;;;;;;;;;;;20.87;49.73;96259.81;6223227;28;20071;-66
2022/07/25 02:29:29;;;;;;;;;;;;;;;20.94;49.80;96256.22;6223269;28;19929;-66
2022/07/25 02:32:32;;;;;;;;;;;;;;;21.04;49.44;96259.50;6223441;28;19930;-65
2022/07/25 02:35:38;;;;;;;;;;;;;;;21.16;49.68;96253.72;6223053;28;20399;-66
2022/07/25 02:38:41;;;;;;;;;;;;;;;21.26;49.31;96254.31;6222772;28;20403;-65
2022/07/25 02:41:44;;;;;;;;;;;;;;;21.36;49.28;96254.88;6223035;28;19921;-66
2022/07/25 02:44:50;;;;;;;;;;;;;;;21.48;48.92;96248.06;6222922;28;20315;-66
2022/07/25 02:47:51;;;;;;;;;;;;;;;21.58;48.56;96247.00;6222262;28;19925;-65
2022/07/25 02:50:57;;;;;;;;;;;;;;;21.67;48.66;96246.72;6222679;28;19926;-66
2022/07/25 02:53:59;;;;;;;;;;;;;;;21.77;48.49;96245.59;6222518;28;19925;-65
2022/07/25 02:57:05;;;;;;;;;;;;;;;21.88;48.59;96251.34;6222693;28;19925;-67
2022/07/25 03:00:06;;;;;;;;;;;;;;;21.99;47.96;96244.66;6222470;28;19925;-67
2022/07/25 03:03:09;;;;;;;;;;;;;;;22.08;48.04;96237.38;6222566;28;20036;-66
2022/07/25 03:06:13;;;;;;;;;;;;;;;22.15;47.85;96249.84;6222127;28;19926;-66
2022/07/25 03:09:19;;;;;;;;;;;;;;;22.25;47.48;96249.59;6222479;28;19925;-66
2022/07/25 03:12:23;;;;;;;;;;;;;;;22.35;47.65;96254.66;6222536;28;19925;-65
2022/07/25 03:15:24;;;;;;;;;;;;;;;22.46;47.71;96262.19;6222073;28;20025;-66
2022/07/25 03:18:26;;;;;;;;;;;;;;;22.58;47.66;96254.47;6222065;28;19933;-65
2022/07/25 03:21:29;;;;;;;;;;;;;;;22.74;46.61;96256.94;6221791;28;19929;-66
2022/07/25 03:24:38;;;;;;;;;;;;;;;22.89;46.69;96258.72;6222041;28;19926;-64
2022/07/25 03:27:39;;;;;;;;;;;;;;;23.03;46.53;96264.06;6221806;28;19962;-65
2022/07/25 03:30:40;;;;;;;;;;;;;;;23.26;45.80;96258.47;6221762;28;19925;-65
2022/07/25 03:33:46;;;;;;;;;;;;;;;23.56;45.46;96258.31;6221855;28;20383;-65
2022/07/25 03:36:47;;;;;;;;;;;;;;;23.94;44.52;96244.50;6221716;28;19925;-66
2022/07/25 03:39:53;;;;;;;;;;;;;;;24.33;44.20;96253.78;6221842;28;19925;-66
2022/07/25 03:42:55;;;;;;;;;;;;;;;24.73;42.95;96248.56;6221511;28;19936;-65
2022/07/25 03:45:58;;;;;;;;;;;;;;;24.94;42.86;96245.72;6221637;28;19931;-66
2022/07/25 03:49:02;;;;;;;;;;;;;;;25.06;42.34;96254.84;6221538;28;20391;-65
2022/07/25 03:52:03;;;;;;;;;;;;;;;25.17;42.04;96247.22;6221433;28;19925;-64
2022/07/25 03:55:06;;;;;;;;;;;;;;;25.30;42.07;96241.81;6220865;28;20414;-66
2022/07/25 03:58:10;;;;;;;;;;;;;;;25.47;41.35;96240.34;6221226;28;19934;-65
2022/07/25 04:01:11;;;;;;;;;;;;;;;25.70;41.15;96239.09;6221202;28;19925;-66
2022/07/25 04:04:17;;;;;;;;;;;;;;;26.01;40.40;96240.28;6221553;28;19941;-65
2022/07/25 04:07:18;;;;;;;;;;;;;;;26.43;39.49;96245.09;6220880;28;19952;-66
2022/07/25 04:10:20;;;;;;;;;;;;;;;26.92;39.10;96236.56;6221072;28;19925;-66
2022/07/25 04:13:25;;;;;;;;;;;;;;;27.53;37.89;96244.84;6221403;28;19926;-66
2022/07/25 04:16:29;;;;;;;;;;;;;;;28.14;37.11;96240.53;6221127;28;19926;-66
2022/07/25 04:19:32;;;;;;;;;;;;;;;28.72;36.38;96241.91;6221272;28;19926;-65
2022/07/25 04:22:34;;;;;;;;;;;;;;;29.22;35.52;96243.50;6221292;28;19926;-65
2022/07/25 04:25:35;;;;;;;;;;;;;;;29.68;34.67;96250.06;6220962;28;20008;-66
2022/07/25 04:28:40;;;;;;;;;;;;;;;29.89;34.43;96260.31;6221311;28;20009;-65
2022/07/25 04:31:45;;;;;;;;;;;;;;;30.15;34.14;96255.47;6222569;28;19925;-67
2022/07/25 04:34:48;;;;;;;;;;;;;;;30.36;33.53;96252.13;6225823;28;19961;-65
2022/07/25 04:37:50;;;;;;;;;;;;;;;30.59;33.41;96247.69;6225438;28;19925;-65
2022/07/25 04:40:53;;;;;;;;;;;;;;;30.86;32.95;96248.81;6225810;28;19925;-66
2022/07/25 04:43:58;;;;;;;;;;;;;;;31.23;32.37;96242.94;6225754;28;19961;-66
2022/07/25 04:47:02;;;;;;;;;;;;;;;31.68;31.68;96252.94;6225417;28;19984;-65
2022/07/25 04:50:03;;;;;;;;;;;;;;;32.25;30.86;96242.91;6225894;28;19925;-67
2022/07/25 04:53:05;;;;;;;;;;;;;;;32.73;30.43;96252.22;6225702;28;19925;-65
2022/07/25 04:56:06;;;;;;;;;;;;;;;33.33;29.38;96245.75;6225132;28;19931;-65
2022/07/25 04:59:07;;;;;;;;;;;;;;;33.95;29.34;96242.44;6225001;28;19932;-66
2022/07/25 05:02:10;;;;;;;;;;;;;;;34.63;28.61;96244.47;6224412;28;20280;-66
2022/07/25 05:05:15;;;;;;;;;;;;;;;35.09;28.14;96250.88;6224979;28;20005;-65
2022/07/25 05:08:18;;;;;;;;;;;;;;;35.08;27.78;96243.78;6224848;28;19925;-66
2022/07/25 05:11:22;;;;;;;;;;;;;;;34.96;28.31;96239.63;6224791;28;20300;-66
2022/07/25 05:14:23;;;;;;;;;;;;;;;34.70;28.32;96247.75;6224869;28;19932;-65
2022/07/25 05:17:24;;;;;;;;;;;;;;;34.56;28.62;96247.44;6225037;28;19925;-67
2022/07/25 05:20:28;;;;;;;;;;;;;;;34.51;28.27;96255.59;6224812;28;20319;-67
2022/07/25 05:23:31;;;;;;;;;;;;;;;34.36;26.88;96264.53;6224624;28;19926;-65
2022/07/25 05:26:34;;;;;;;;;;;;;;;33.95;26.76;96263.47;6224689;28;19932;-65
2022/07/25 05:29:40;;;;;;;;;;;;;;;34.26;26.74;96264.50;6224438;28;19933;-66
2022/07/25 05:32:46;;;;;;;;;;;;;;;35.19;25.59;96271.97;6224632;28;20310;-67
2022/07/25 05:35:47;;;;;;;;;;;;;;;36.14;23.61;96265.16;6224390;28;19935;-65
2022/07/25 05:38:51;;;;;;;;;;;;;;;37.46;23.75;96266.47;6224437;28;19925;-65
2022/07/25 05:41:52;;;;;;;;;;;;;;;38.07;21.08;96267.09;6224422;28;20421;-65
2022/07/25 05:44:53;;;;;;;;;;;;;;;38.55;23.19;96272.63;6223857;28;19925;-66
2022/07/25 05:47:59;;;;;;;;;;;;;;;39.22;21.04;96270.66;6224065;28;19941;-66
2022/07/25 05:51:04;;;;;;;;;;;;;;;38.68;21.63;96269.19;6224158;28;19926;-66
2022/07/25 05:54:09;;;;;;;;;;;;;;;38.74;21.23;96264.44;6223532;28;19925;-66
2022/07/25 05:57:12;;;;;;;;;;;;;;;38.83;21.02;96263.47;6223900;28;19925;-66
2022/07/25 06:00:13;;;;;;;;;;;;;;;39.33;20.40;96270.56;6223147;28;19925;-66
2022/07/25 06:03:17;;;;;;;;;;;;;;;40.18;19.34;96267.47;6223712;28;19925;-67
2022/07/25 06:06:21;;;;;;;;;;;;;;;41.10;18.95;96255.75;6223746;28;20403;-66
2022/07/25 06:09:27;;;;;;;;;;;;;;;42.42;17.55;96257.16;6223777;28;19925;-65
2022/07/25 06:12:32;;;;;;;;;;;;;;;44.41;16.67;96263.13;6223662;28;20020;-66
2022/07/25 06:15:36;;;;;;;;;;;;;;;46.44;15.35;96253.38;6223218;28;20022;-66
2022/07/25 06:18:39;;;;;;;;;;;;;;;47.95;14.69;96246.81;6223266;28;19925;-65
2022/07/25 06:21:43;;;;;;;;;;;;;;;48.63;13.81;96248.59;6222925;28;19925;-66
2022/07/25 06:24:47;;;;;;;;;;;;;;;50.07;13.14;96242.16;6223695;28;19965;-65
2022/07/25 06:27:53;;;;;;;;;;;;;;;52.59;11.93;96248.00;6223005;28;19926;-65
2022/07/25 06:30:54;;;;;;;;;;;;;;;54.90;9.79;96251.28;6221626;28;20020;-65
2022/07/25 06:33:58;;;;;;;;;;;;;;;55.24;10.56;96231.06;6222398;28;19928;-65
2022/07/25 06:37:03;;;;;;;;;;;;;;;54.16;10.78;96231.16;6222803;28;20395;-66
2022/07/25 06:40:08;;;;;;;;;;;;;;;53.46;12.20;96229.72;6222699;28;20015;-65
2022/07/25 06:43:12;;;;;;;;;;;;;;;52.76;11.20;96221.25;6222902;28;19926;-65
2022/07/25 06:46:15;;;;;;;;;;;;;;;53.63;9.42;96226.16;6222266;28;20060;-65
2022/07/25 06:49:19;;;;;;;;;;;;;;;54.57;9.70;96227.94;6222542;28;19925;-65
2022/07/25 06:52:20;;;;;;;;;;;;;;;56.25;6.73;96235.06;6222458;28;19932;-65
2022/07/25 06:55:23;;;;;;;;;;;;;;;56.22;5.98;96233.06;6222036;28;19925;-66
2022/07/25 06:58:27;;;;;;;;;;;;;;;56.98;5.54;96250.19;6222160;28;19925;-64
2022/07/25 07:01:31;;;;;;;;;;;;;;;55.52;5.75;96225.38;6222384;28;19925;-65
2022/07/25 07:04:34;;;;;;;;;;;;;;;52.28;7.57;96210.00;6221711;28;19925;-66
2022/07/25 07:07:36;;;;;;;;;;;;;;;49.46;8.87;96201.81;6221819;28;19925;-64
2022/07/25 07:10:41;;;;;;;;;;;;;;;47.64;8.95;96204.53;6222129;28;19925;-65
2022/07/25 07:13:42;;;;;;;;;;;;;;;45.24;9.97;96212.50;6222388;28;19988;-65
2022/07/25 07:16:47;;;;;;;;;;;;;;;43.61;11.04;96203.47;6221718;28;19925;-66
2022/07/25 07:19:48;;;;;;;;;;;;;;;44.28;10.86;96192.84;6221970;28;19976;-65
2022/07/25 07:22:55;;;;;;;;;;;;;;;45.37;10.59;96197.53;6221521;28;19932;-65
2022/07/25 07:25:58;;;;;;;;;;;;;;;43.33;12.00;96210.50;6221630;28;19921;-65
2022/07/25 07:29:04;;;;;;;;;;;;;;;42.23;12.44;96204.84;6221580;28;20320;-65
2022/07/25 07:32:06;;;;;;;;;;;;;;;43.95;12.09;96212.06;6221806;28;20067;-66
2022/07/25 07:35:10;;;;;;;;;;;;;;;45.30;11.20;96213.97;6221851;28;19926;-65
2022/07/25 07:38:12;;;;;;;;;;;;;;;46.07;10.74;96217.13;6221522;28;19930;-65
2022/07/25 07:41:14;;;;;;;;;;;;;;;46.62;10.50;96220.53;6221725;28;19925;-65
2022/07/25 07:44:19;;;;;;;;;;;;;;;47.52;9.88;96207.41;6221803;28;19925;-65
2022/07/25 07:47:20;;;;;;;;;;;;;;;48.53;9.18;96216.47;6221646;28;20045;-64
2022/07/25 07:50:25;;;;;;;;;;;;;;;48.39;9.20;96222.50;6221128;28;19930;-66
2022/07/25 07:56:50;;;;;;;;;;;;;;;46.06;10.84;96198.84;6221468;28;20319;-65
2022/07/25 07:59:51;;;;;;;;;;;;;;;44.87;12.05;96203.97;6220665;28;20383;-65
2022/07/25 08:02:53;;;;;;;;;;;;;;;42.31;14.38;96206.84;6221341;28;19926;-66
2022/07/25 08:05:54;;;;;;;;;;;;;;;40.55;15.78;96199.50;6221212;28;20148;-66
2022/07/25 08:08:56;;;;;;;;;;;;;;;40.82;15.36;96195.06;6226360;28;19926;-66
2022/07/25 08:11:57;;;;;;;;;;;;;;;42.27;13.76;96186.50;6225940;28;19983;-64
2022/07/25 08:15:00;;;;;;;;;;;;;;;43.53;12.61;96197.91;6226315;28;20384;-65
2022/07/25 08:18:05;;;;;;;;;;;;;;;43.19;13.19;96186.53;6225322;28;20022;-66
2022/07/25 08:21:09;;;;;;;;;;;;;;;41.99;14.00;96193.41;6226128;28;19929;-66
2022/07/25 08:24:10;;;;;;;;;;;;;;;41.68;14.63;96183.13;6225742;28;19925;-65
2022/07/25 08:27:14;;;;;;;;;;;;;;;41.26;14.80;96179.72;6226053;28;19929;-65
2022/07/25 08:30:15;;;;;;;;;;;;;;;41.01;15.39;96187.47;6225428;28;19932;-65
2022/07/25 08:33:16;;;;;;;;;;;;;;;40.97;15.12;96191.97;6225807;28;19976;-65
2022/07/25 08:36:22;;;;;;;;;;;;;;;40.16;15.20;96188.97;6225845;28;19932;-65
2022/07/25 08:39:24;;;;;;;;;;;;;;;38.94;16.08;96194.63;6225665;28;19933;-65
2022/07/25 08:42:25;;;;;;;;;;;;;;;38.02;17.15;96192.97;6225600;28;20458;-66
2022/07/25 08:45:29;;;;;;;;;;;;;;;37.19;18.31;96203.03;6225698;28;19921;-65
2022/07/25 08:48:30;;;;;;;;;;;;;;;36.32;19.08;96200.72;6225700;28;19925;-64
2022/07/25 08:51:33;;;;;;;;;;;;;;;35.86;19.41;96198.09;6225511;28;19928;-65
2022/07/25 08:54:39;;;;;;;;;;;;;;;36.00;19.70;96210.09;6225355;28;19926;-65
2022/07/25 08:57:42;;;;;;;;;;;;;;;35.55;19.88;96203.59;6225349;28;20303;-65
2022/07/25 09:00:44;;;;;;;;;;;;;;;35.57;20.01;96204.16;6225218;28;19925;-65
2022/07/25 09:03:45;;;;;;;;;;;;;;;36.89;18.64;96218.56;6225292;28;20411;-66
2022/07/25 09:06:50;;;;;;;;;;;;;;;38.65;17.06;96203.78;6224816;28;20036;-65
2022/07/25 09:09:56;;;;;;;;;;;;;;;39.90;16.34;96207.94;6224976;28;19925;-66
2022/07/25 09:13:06;;;;;;;;;;;;;;;39.80;16.27;96202.59;6224963;28;19925;-65
2022/07/25 09:16:12;;;;;;;;;;;;;;;38.60;17.47;96207.41;6224844;28;19965;-65
2022/07/25 09:19:19;;;;;;;;;;;;;;;38.21;17.27;96202.09;6224561;28;19925;-66
2022/07/25 09:22:23;;;;;;;;;;;;;;;36.99;18.48;96203.97;6224713;28;19933;-65
2022/07/25 09:25:28;;;;;;;;;;;;;;;36.55;19.01;96200.13;6224749;28;19926;-66
2022/07/25 09:28:38;;;;;;;;;;;;;;;36.21;19.01;96199.97;6224660;28;19971;-65
2022/07/25 09:31:41;;;;;;;;;;;;;;;35.78;19.42;96201.41;6224768;28;20282;-65
2022/07/25 09:34:44;;;;;;;;;;;;;;;35.47;19.65;96209.59;6224440;28;19925;-65
2022/07/25 09:37:47;;;;;;;;;;;;;;;35.51;19.19;96219.75;6224431;28;20311;-66
2022/07/25 09:40:58;;;;;;;;;;;;;;;35.49;19.08;96221.91;6224199;28;19925;-65
2022/07/25 09:43:59;;;;;;;;;;;;;;;35.34;19.44;96221.94;6223830;28;19925;-65
2022/07/25 09:47:09;;;;;;;;;;;;;;;35.38;19.79;96220.28;6224272;28;19930;-65
2022/07/25 09:50:13;;;;;;;;;;;;;;;35.88;19.19;96220.56;6224287;28;19926;-65
2022/07/25 09:53:14;;;;;;;;;;;;;;;35.54;19.86;96223.84;6223716;28;19995;-66
2022/07/25 09:56:15;;;;;;;;;;;;;;;34.60;21.21;96225.88;6223671;28;20445;-65
2022/07/25 09:59:16;;;;;;;;;;;;;;;33.76;22.06;96227.56;6221978;28;20315;-65
2022/07/25 10:02:20;;;;;;;;;;;;;;;32.68;22.98;96225.75;6223635;28;19935;-66
2022/07/25 10:05:22;;;;;;;;;;;;;;;32.09;24.21;96220.09;6222780;28;19926;-67
2022/07/25 10:08:26;;;;;;;;;;;;;;;31.74;24.71;96230.19;6223636;28;19925;-65
2022/07/25 10:11:29;;;;;;;;;;;;;;;31.53;25.30;96234.47;6223550;28;19925;-66
2022/07/25 10:14:32;;;;;;;;;;;;;;;31.26;25.22;96228.88;6223565;28;19922;-66
2022/07/25 10:17:37;;;;;;;;;;;;;;;31.38;25.93;96230.72;6223251;28;20296;-66
2022/07/25 10:20:43;;;;;;;;;;;;;;;31.58;26.62;96222.88;6223408;28;19925;-66
2022/07/25 10:23:56;;;;;;;;;;;;;;;31.93;26.53;96228.06;6223238;28;20440;-66
2022/07/25 10:27:06;;;;;;;;;;;;;;;32.98;25.24;96227.13;6223228;28;19925;-66
2022/07/25 10:30:09;;;;;;;;;;;;;;;35.80;22.09;96243.00;6221740;28;20383;-66
2022/07/25 10:33:14;;;;;;;;;;;;;;;37.65;20.14;96239.19;6223149;28;19929;-66
2022/07/25 10:36:16;;;;;;;;;;;;;;;37.78;18.33;96256.09;6222738;28;20430;-66
2022/07/25 10:39:21;;;;;;;;;;;;;;;36.90;17.50;96244.88;6222850;28;19999;-66
2022/07/25 10:42:31;;;;;;;;;;;;;;;36.53;17.91;96248.91;6222768;28;19925;-66
2022/07/25 10:45:36;;;;;;;;;;;;;;;36.08;18.15;96267.09;6222610;28;19926;-65
2022/07/25 10:48:38;;;;;;;;;;;;;;;35.87;17.65;96257.22;6222860;28;19925;-64
2022/07/25 10:51:50;;;;;;;;;;;;;;;35.68;18.18;96263.28;6222576;28;19925;-65
2022/07/25 10:54:59;;;;;;;;;;;;;;;35.36;18.74;96243.53;6222676;28;19929;-65
2022/07/25 10:58:05;;;;;;;;;;;;;;;34.81;19.23;96275.94;6222351;28;19926;-65
2022/07/25 11:01:13;;;;;;;;;;;;;;;34.48;19.74;96255.28;6222289;28;19929;-65
2022/07/25 11:04:14;;;;;;;;;;;;;;;33.70;20.75;96251.28;6222001;28;19931;-65
2022/07/25 11:07:20;;;;;;;;;;;;;;;33.55;21.20;96245.72;6222444;28;20407;-66
2022/07/25 11:10:24;;;;;;;;;;;;;;;33.24;22.17;96247.31;6222095;28;19925;-66
2022/07/25 11:13:28;;;;;;;;;;;;;;;33.14;22.39;96244.50;6222084;28;19925;-65
2022/07/25 11:16:34;;;;;;;;;;;;;;;33.11;22.36;96248.56;6221824;28;20008;-65
2022/07/25 11:19:37;;;;;;;;;;;;;;;33.13;22.45;96254.59;6221123;28;20214;-65
2022/07/25 11:22:38;;;;;;;;;;;;;;;32.73;22.65;96252.22;6221784;28;19987;-66
2022/07/25 11:25:42;;;;;;;;;;;;;;;32.42;20.95;96249.09;6221770;28;19940;-65
2022/07/25 11:28:47;;;;;;;;;;;;;;;32.01;20.87;96236.84;6220574;28;19929;-65
2022/07/25 11:31:53;;;;;;;;;;;;;;;31.72;20.99;96245.94;6221466;28;19932;-66
2022/07/25 11:34:54;;;;;;;;;;;;;;;31.49;21.47;96235.25;6221458;28;20009;-65
2022/07/25 11:38:01;;;;;;;;;;;;;;;31.21;21.44;96228.78;6221305;28;19925;-66
2022/07/25 11:41:05;;;;;;;;;;;;;;;31.02;21.38;96227.34;6221249;28;19925;-66
2022/07/25 11:44:06;;;;;;;;;;;;;;;30.85;22.01;96219.97;6221261;28;19926;-65
2022/07/25 11:47:09;;;;;;;;;;;;;;;31.01;21.43;96231.97;6221417;28;19926;-66
2022/07/25 11:50:13;;;;;;;;;;;;;;;30.85;21.78;96239.00;6221196;28;19964;-67
2022/07/25 11:53:18;;;;;;;;;;;;;;;30.55;22.41;96227.53;6221427;28;19925;-65
2022/07/25 11:56:20;;;;;;;;;;;;;;;30.62;22.43;96226.31;6221222;28;19922;-66
2022/07/25 11:59:24;;;;;;;;;;;;;;;30.83;22.24;96224.84;6221125;28;20342;-66
2022/07/25 12:02:27;;;;;;;;;;;;;;;30.87;22.30;96226.00;6221213;28;20277;-65
2022/07/25 12:05:31;;;;;;;;;;;;;;;30.81;22.55;96220.72;6220787;28;19925;-65
2022/07/25 12:08:37;;;;;;;;;;;;;;;30.73;22.54;96210.22;6220710;28;19941;-65
2022/07/25 12:11:41;;;;;;;;;;;;;;;30.43;22.46;96203.97;6221017;28;20398;-66
2022/07/25 12:14:45;;;;;;;;;;;;;;;30.47;22.63;96203.50;6220967;28;19951;-66
2022/07/25 12:17:49;;;;;;;;;;;;;;;30.26;22.66;96203.06;6220907;28;20536;-65
2022/07/25 12:20:52;;;;;;;;;;;;;;;30.11;23.19;96195.41;6220812;28;20421;-65
2022/07/25 12:23:53;;;;;;;;;;;;;;;29.94;23.08;96189.91;6220573;28;20423;-65
2022/07/25 12:26:58;;;;;;;;;;;;;;;29.82;23.21;96186.38;6220722;28;19921;-65
2022/07/25 12:30:03;;;;;;;;;;;;;;;29.81;23.23;96179.34;6220822;28;19925;-65
2022/07/25 12:33:07;;;;;;;;;;;;;;;29.84;23.51;96183.41;6220906;28;19926;-65
2022/07/25 12:36:10;;;;;;;;;;;;;;;29.89;23.60;96192.50;6220744;28;19926;-66
2022/07/25 12:39:15;;;;;;;;;;;;;;;29.68;23.83;96187.72;6220562;28;20421;-66
2022/07/25 12:42:24;;;;;;;;;;;;;;;29.48;24.16;96186.16;6220864;28;19925;-66
2022/07/25 12:45:26;;;;;;;;;;;;;;;29.40;24.13;96178.34;6220341;28;19932;-65
2022/07/25 12:48:29;;;;;;;;;;;;;;;29.60;24.04;96174.47;6219999;28;19926;-65
2022/07/25 12:51:33;;;;;;;;;;;;;;;29.47;24.35;96184.50;6220094;28;19952;-65
2022/07/25 12:54:36;;;;;;;;;;;;;;;29.46;24.13;96172.00;6224366;28;19960;-65
2022/07/25 12:57:38;;;;;;;;;;;;;;;29.76;23.71;96168.38;6225021;28;19944;-64
2022/07/25 13:00:42;;;;;;;;;;;;;;;29.76;23.57;96163.75;6224944;28;20023;-66
2022/07/25 13:03:46;;;;;;;;;;;;;;;29.71;23.60;96165.53;6224940;28;19926;-66
2022/07/25 13:06:47;;;;;;;;;;;;;;;29.80;23.60;96172.22;6224463;28;19932;-65
2022/07/25 13:09:50;;;;;;;;;;;;;;;29.79;23.35;96165.19;6224046;28;19961;-66
2022/07/25 13:12:52;;;;;;;;;;;;;;;29.88;23.14;96166.44;6224218;28;19925;-66
2022/07/25 13:15:58;;;;;;;;;;;;;;;30.24;22.66;96171.84;6224577;28;20383;-66
2022/07/25 13:19:01;;;;;;;;;;;;;;;30.17;22.75;96167.31;6224621;28;19926;-65
2022/07/25 13:22:07;;;;;;;;;;;;;;;30.28;22.62;96173.81;6224465;28;19925;-64
2022/07/25 13:25:10;;;;;;;;;;;;;;;30.35;22.43;96171.78;6224047;28;19925;-66
2022/07/25 13:28:12;;;;;;;;;;;;;;;30.30;22.63;96174.41;6223688;28;19925;-66
2022/07/25 13:31:13;;;;;;;;;;;;;;;30.42;23.08;96175.16;6224040;28;19932;-65
2022/07/25 13:34:14;;;;;;;;;;;;;;;30.49;22.57;96168.75;6223555;28;19932;-66
2022/07/25 13:37:20;;;;;;;;;;;;;;;30.29;22.78;96163.78;6223774;28;20400;-65
2022/07/25 13:40:21;;;;;;;;;;;;;;;30.22;22.78;96163.91;6223598;28;20060;-66
2022/07/25 13:43:26;;;;;;;;;;;;;;;30.20;23.31;96163.28;6224069;28;20016;-67
2022/07/25 13:46:32;;;;;;;;;;;;;;;30.23;22.94;96164.75;6223661;28;19925;-65
2022/07/25 13:49:35;;;;;;;;;;;;;;;30.05;22.95;96152.16;6223252;28;19929;-65
2022/07/25 13:52:37;;;;;;;;;;;;;;;29.85;23.11;96150.66;6223753;28;19932;-66
2022/07/25 13:55:38;;;;;;;;;;;;;;;29.86;23.29;96159.63;6223823;28;20418;-66
2022/07/25 13:58:44;;;;;;;;;;;;;;;29.45;23.93;96154.09;6223633;28;19925;-67
2022/07/25 14:01:48;;;;;;;;;;;;;;;29.23;24.53;96150.31;6223412;28;19925;-65
2022/07/25 14:04:53;;;;;;;;;;;;;;;29.14;24.63;96151.72;6222040;28;19926;-67
2022/07/25 14:07:58;;;;;;;;;;;;;;;29.03;25.08;96156.06;6223180;28;19929;-65
2022/07/25 14:11:01;;;;;;;;;;;;;;;28.92;25.28;96165.78;6223314;28;19925;-66
2022/07/25 14:14:05;;;;;;;;;;;;;;;28.92;25.41;96160.38;6223267;28;19932;-66
2022/07/25 14:17:06;;;;;;;;;;;;;;;28.71;25.70;96160.94;6222996;28;19925;-66
2022/07/25 14:20:09;;;;;;;;;;;;;;;28.59;26.02;96159.00;6222848;28;19925;-66
2022/07/25 14:23:11;;;;;;;;;;;;;;;28.69;26.13;96154.91;6222437;28;19925;-65
2022/07/25 14:26:12;;;;;;;;;;;;;;;28.51;26.26;96140.41;6222537;28;20059;-65
2022/07/25 14:29:13;;;;;;;;;;;;;;;28.44;26.49;96134.25;6222486;28;20292;-66
2022/07/25 14:32:14;;;;;;;;;;;;;;;28.34;26.44;96136.66;6222838;28;19925;-66
2022/07/25 14:35:16;;;;;;;;;;;;;;;28.21;26.59;96124.94;6222502;28;20391;-66
2022/07/25 14:38:19;;;;;;;;;;;;;;;28.27;26.67;96125.91;6222354;28;19930;-67
2022/07/25 14:41:21;;;;;;;;;;;;;;;28.19;26.69;96129.78;6222506;28;19921;-66
2022/07/25 14:44:27;;;;;;;;;;;;;;;28.19;26.46;96124.38;6222659;28;19925;-66
2022/07/25 14:47:33;;;;;;;;;;;;;;;28.16;26.59;96119.38;6222632;28;19925;-65
2022/07/25 14:50:37;;;;;;;;;;;;;;;28.13;26.67;96109.03;6222500;28;20027;-66
2022/07/25 14:53:40;;;;;;;;;;;;;;;28.03;26.71;96106.06;6222332;28;19936;-67
2022/07/25 14:56:42;;;;;;;;;;;;;;;27.91;26.85;96095.19;6222481;28;19932;-66
2022/07/25 14:59:48;;;;;;;;;;;;;;;27.81;27.00;96099.50;6222041;28;19965;-65
2022/07/25 15:02:49;;;;;;;;;;;;;;;27.73;27.02;96082.47;6222330;28;19926;-65
2022/07/25 15:05:50;;;;;;;;;;;;;;;27.69;26.88;96086.69;6222004;28;19933;-66
2022/07/25 15:08:51;;;;;;;;;;;;;;;27.64;27.21;96089.25;6221875;28;19932;-66
2022/07/25 15:11:54;;;;;;;;;;;;;;;27.58;27.16;96090.16;6221945;28;19932;-65
2022/07/25 15:14:58;;;;;;;;;;;;;;;27.53;27.18;96093.53;6220570;28;19931;-66
2022/07/25 15:17:59;;;;;;;;;;;;;;;27.47;27.10;96104.41;6222126;28;19930;-67
2022/07/25 15:21:02;;;;;;;;;;;;;;;27.40;27.06;96103.66;6221186;28;19991;-66
2022/07/25 15:24:06;;;;;;;;;;;;;;;27.33;27.58;96102.91;6221572;28;19925;-66
2022/07/25 15:27:10;;;;;;;;;;;;;;;27.23;27.25;96098.84;6221483;28;19933;-67
2022/07/25 15:30:14;;;;;;;;;;;;;;;27.18;27.71;96098.69;6221273;28;19926;-66
2022/07/25 15:33:16;;;;;;;;;;;;;;;27.14;27.46;96100.13;6221271;28;19933;-66
2022/07/25 15:36:18;;;;;;;;;;;;;;;27.11;27.92;96100.59;6221888;28;19921;-65
2022/07/25 15:39:22;;;;;;;;;;;;;;;27.06;27.75;96098.56;6221477;28;20006;-65
2022/07/25 15:42:26;;;;;;;;;;;;;;;27.02;27.68;96102.75;6221246;28;20056;-66
2022/07/25 15:45:30;;;;;;;;;;;;;;;26.96;28.18;96102.81;6221078;28;20015;-66
2022/07/25 15:48:35;;;;;;;;;;;;;;;26.88;27.83;96102.03;6221527;28;19925;-65
2022/07/25 15:51:40;;;;;;;;;;;;;;;26.82;28.26;96094.81;6221069;28;19925;-66
2022/07/25 15:54:43;;;;;;;;;;;;;;;26.79;27.92;96097.97;6221132;28;19925;-66
2022/07/25 15:57:44;;;;;;;;;;;;;;;26.76;28.37;96103.00;6221040;28;19931;-66
2022/07/25 16:00:45;;;;;;;;;;;;;;;26.72;28.20;96101.75;6221419;28;19961;-65